createdAt,value
2023-04-15T00:00:34.464Z,65.87
2023-04-15T00:03:38.522Z,87.73
2023-04-15T00:06:42.304Z,80.18
2023-04-15T00:09:46.660Z,88.53
2023-04-15T00:12:49.988Z,86.78
2023-04-15T00:15:53.860Z,76.70
2023-04-15T00:18:57.637Z,79.83
2023-04-15T00:22:02.052Z,83.97
2023-04-15T00:25:06.105Z,79.82
2023-04-15T00:28:10.300Z,80.50
2023-04-15T00:31:14.118Z,71.57
2023-04-15T00:34:17.791Z,61.93
2023-04-15T00:37:21.761Z,61.60
2023-04-15T00:40:27.096Z,51.53
2023-04-15T00:43:30.211Z,54.85
2023-04-15T00:46:38.122Z,60.75
2023-04-15T00:49:42.048Z,42.87
2023-04-15T00:52:45.923Z,56.72
2023-04-15T00:55:49.896Z,60.35
2023-04-15T00:58:53.475Z,64.80
2023-04-15T01:01:57.883Z,55.88
2023-04-15T01:05:01.721Z,52.03
2023-04-15T01:08:06.520Z,62.50
2023-04-15T01:11:13.687Z,60.83
2023-04-15T01:14:18.106Z,61.92
2023-04-15T01:17:21.752Z,59.53
2023-04-15T01:20:25.354Z,51.60
2023-04-15T01:23:29.626Z,58.08
2023-04-15T01:26:33.815Z,61.10
2023-04-15T01:29:40.045Z,55.42
2023-04-15T01:32:43.943Z,62.70
2023-04-15T01:35:47.812Z,65.60
2023-04-15T01:38:52.830Z,56.55
2023-04-15T01:41:58.813Z,60.35
2023-04-15T01:45:02.954Z,53.53
2023-04-15T01:48:06.801Z,58.60
2023-04-15T01:51:14.183Z,49.03
2023-04-15T01:54:17.970Z,35.83
2023-04-15T01:57:22.048Z,39.05
2023-04-15T02:00:27.858Z,39.38
2023-04-15T02:03:31.113Z,31.97
2023-04-15T02:06:35.216Z,39.13
2023-04-15T02:09:39.317Z,45.45
2023-04-15T02:12:44.928Z,38.00
2023-04-15T02:15:50.086Z,42.15
2023-04-15T02:18:55.690Z,46.43
2023-04-15T02:21:59.174Z,40.67
2023-04-15T02:25:02.485Z,43.92
2023-04-15T02:28:08.279Z,40.70
2023-04-15T02:31:11.377Z,42.28
2023-04-15T02:34:15.240Z,36.77
2023-04-15T02:37:21.494Z,40.97
2023-04-15T02:40:24.551Z,47.13
2023-04-15T02:43:28.276Z,41.55
2023-04-15T02:46:32.067Z,41.67
2023-04-15T02:49:35.783Z,36.30
2023-04-15T02:52:42.988Z,45.13
2023-04-15T02:55:47.110Z,47.08
2023-04-15T02:58:51.699Z,40.88
2023-04-15T03:01:56.004Z,42.58
2023-04-15T03:05:00.402Z,38.47
2023-04-15T03:08:04.853Z,34.70
2023-04-15T03:11:09.471Z,40.05
2023-04-15T03:14:13.252Z,39.28
2023-04-15T03:17:21.541Z,52.20
2023-04-15T03:20:26.219Z,45.73
2023-04-15T03:23:30.340Z,53.27
2023-04-15T03:26:34.117Z,28.58
2023-04-15T03:29:44.835Z,27.17
2023-04-15T03:32:50.386Z,30.70
2023-04-15T03:35:54.640Z,33.50
2023-04-15T03:38:58.638Z,27.90
2023-04-15T03:42:04.362Z,26.58
2023-04-15T03:45:08.628Z,28.77
2023-04-15T03:48:17.922Z,32.22
2023-04-15T03:51:21.443Z,29.67
2023-04-15T03:54:25.031Z,19.37
2023-04-15T03:57:28.062Z,18.55
2023-04-15T04:00:31.625Z,21.60
2023-04-15T04:03:34.998Z,17.02
2023-04-15T04:06:38.421Z,11.97
2023-04-15T04:09:42.608Z,21.23
2023-04-15T04:12:45.613Z,25.65
2023-04-15T04:15:49.633Z,17.92
2023-04-15T04:18:53.317Z,12.45
2023-04-15T04:21:56.619Z,11.07
2023-04-15T04:25:01.101Z,10.97
2023-04-15T04:28:05.039Z,7.35
2023-04-15T04:31:08.661Z,15.02
2023-04-15T04:34:12.757Z,18.73
2023-04-15T04:37:16.592Z,18.60
2023-04-15T04:40:20.350Z,8.43
2023-04-15T04:43:24.107Z,35.20
2023-04-15T04:46:27.909Z,21.08
2023-04-15T04:49:31.607Z,10.95
2023-04-15T04:52:35.501Z,9.17
2023-04-15T04:55:39.085Z,11.70
2023-04-15T04:58:43.287Z,9.43
2023-04-15T05:01:47.150Z,15.18
2023-04-15T05:04:52.639Z,25.90
2023-04-15T05:07:56.284Z,13.33
2023-04-15T05:10:59.950Z,17.07
2023-04-15T05:14:03.562Z,14.00
2023-04-15T05:17:06.676Z,15.40
2023-04-15T05:20:10.318Z,8.98
2023-04-15T05:23:13.909Z,8.00
2023-04-15T05:26:17.128Z,8.80
2023-04-15T05:29:20.837Z,25.63
2023-04-15T05:32:23.958Z,11.80
2023-04-15T05:35:28.168Z,12.75
2023-04-15T05:38:31.674Z,9.43
2023-04-15T05:41:35.687Z,19.13
2023-04-15T05:44:38.547Z,9.23
2023-04-15T05:47:42.754Z,9.48
2023-04-15T05:50:46.103Z,7.78
2023-04-15T05:53:49.318Z,9.90
2023-04-15T05:56:52.934Z,11.23
2023-04-15T05:59:58.145Z,7.30
2023-04-15T06:03:01.965Z,8.90
2023-04-15T06:06:06.253Z,9.73
2023-04-15T06:09:09.545Z,4.50
2023-04-15T06:12:14.053Z,14.13
2023-04-15T06:15:17.710Z,6.32
2023-04-15T06:18:21.686Z,7.88
2023-04-15T06:21:24.671Z,6.18
2023-04-15T06:24:28.454Z,2.13
2023-04-15T06:27:32.618Z,7.57
2023-04-15T06:30:37.879Z,8.15
2023-04-15T06:33:41.102Z,3.20
2023-04-15T06:36:44.748Z,8.10
2023-04-15T06:39:48.475Z,2.10
2023-04-15T06:42:52.533Z,10.17
2023-04-15T06:45:57.215Z,9.38
2023-04-15T06:49:00.748Z,2.38
2023-04-15T06:52:05.631Z,3.13
2023-04-15T06:55:09.938Z,3.57
2023-04-15T06:58:13.648Z,4.20
2023-04-15T07:01:16.997Z,10.40
2023-04-15T07:04:21.335Z,9.07
2023-04-15T07:07:25.356Z,3.13
2023-04-15T07:10:28.972Z,4.13
2023-04-15T07:13:33.653Z,3.10
2023-04-15T07:16:37.245Z,3.42
2023-04-15T07:19:41.552Z,1.45
2023-04-15T07:22:45.265Z,5.55
2023-04-15T07:25:50.002Z,3.40
2023-04-15T07:28:53.562Z,4.30
2023-04-15T07:31:58.137Z,8.07
2023-04-15T07:35:01.111Z,15.27
2023-04-15T07:38:05.229Z,4.88
2023-04-15T07:41:08.931Z,6.00
2023-04-15T07:44:13.537Z,3.00
2023-04-15T07:47:17.288Z,3.47
2023-04-15T07:50:21.492Z,3.70
2023-04-15T07:53:25.031Z,2.58
2023-04-15T07:56:28.963Z,3.10
2023-04-15T07:59:34.005Z,4.03
2023-04-15T08:02:40.333Z,1.95
2023-04-15T08:05:44.288Z,6.20
2023-04-15T08:08:48.570Z,9.57
2023-04-15T08:11:52.262Z,5.00
2023-04-15T08:14:57.540Z,10.43
2023-04-15T08:18:01.944Z,7.43
2023-04-15T08:21:06.520Z,2.28
2023-04-15T08:24:09.492Z,4.13
2023-04-15T08:27:13.658Z,6.93
2023-04-15T08:30:16.570Z,14.00
2023-04-15T08:33:20.392Z,5.78
2023-04-15T08:36:23.949Z,5.35
2023-04-15T08:39:27.967Z,2.85
2023-04-15T08:42:38.460Z,8.67
2023-04-15T08:45:42.234Z,36.30
2023-04-15T08:48:48.544Z,13.35
2023-04-15T08:51:51.533Z,6.47
2023-04-15T08:54:59.628Z,5.25
2023-04-15T08:58:03.877Z,6.43
2023-04-15T09:01:07.774Z,3.37
2023-04-15T09:04:13.395Z,4.13
2023-04-15T09:07:16.860Z,6.03
2023-04-15T09:10:20.950Z,6.10
2023-04-15T09:13:24.291Z,15.43
2023-04-15T09:16:29.402Z,8.10
2023-04-15T09:19:35.095Z,10.70
2023-04-15T09:22:39.802Z,10.07
2023-04-15T09:25:43.910Z,9.93
2023-04-15T09:28:47.901Z,9.47
2023-04-15T09:31:51.527Z,4.60
2023-04-15T09:34:55.456Z,7.88
2023-04-15T09:38:10.304Z,6.80
2023-04-15T09:41:22.382Z,7.43
2023-04-15T09:44:27.444Z,11.67
2023-04-15T09:47:34.068Z,6.13
2023-04-15T09:50:43.659Z,14.13
2023-04-15T09:53:46.567Z,9.32
2023-04-15T09:56:50.525Z,6.40
2023-04-15T09:59:54.564Z,6.67
2023-04-15T10:02:58.405Z,7.03
2023-04-15T10:06:03.065Z,9.27
2023-04-15T10:09:08.012Z,15.50
2023-04-15T10:12:12.341Z,15.88
2023-04-15T10:15:18.601Z,9.23
2023-04-15T10:18:24.674Z,17.77
2023-04-15T10:21:29.467Z,13.07
2023-04-15T10:24:33.828Z,11.68
2023-04-15T10:27:37.662Z,10.30
2023-04-15T10:30:41.492Z,10.30
2023-04-15T10:33:47.044Z,7.30
2023-04-15T10:36:52.127Z,15.85
2023-04-15T10:39:55.204Z,14.15
2023-04-15T10:43:02.939Z,14.80
2023-04-15T10:46:08.982Z,10.67
2023-04-15T10:49:17.082Z,6.97
2023-04-15T10:52:26.448Z,10.65
2023-04-15T10:55:34.224Z,10.00
2023-04-15T10:58:44.603Z,10.30
2023-04-15T11:01:57.169Z,19.70
2023-04-15T11:05:01.845Z,18.83
2023-04-15T11:08:05.242Z,17.10
2023-04-15T11:11:09.039Z,14.88
2023-04-15T11:14:19.594Z,18.95
2023-04-15T11:17:30.184Z,11.97
2023-04-15T11:20:34.391Z,4.83
2023-04-15T11:23:44.990Z,5.63
2023-04-15T11:26:48.475Z,7.28
2023-04-15T11:29:53.271Z,9.35
2023-04-15T11:33:00.925Z,14.33
2023-04-15T11:36:05.114Z,19.93
2023-04-15T11:39:08.849Z,19.58
2023-04-15T11:42:18.921Z,16.02
2023-04-15T11:45:22.442Z,14.85
2023-04-15T11:48:35.180Z,19.57
2023-04-15T11:51:38.146Z,22.37
2023-04-15T11:54:41.468Z,15.80
2023-04-15T11:57:45.466Z,22.42
2023-04-15T12:01:00.640Z,23.92
2023-04-15T12:04:13.308Z,12.23
2023-04-15T12:07:17.177Z,16.17
2023-04-15T12:10:20.958Z,14.38
2023-04-15T12:13:24.606Z,17.88
2023-04-15T12:16:29.168Z,16.70
2023-04-15T12:19:37.425Z,18.73
2023-04-15T12:22:41.802Z,14.30
2023-04-15T12:25:45.376Z,15.13
2023-04-15T12:28:48.424Z,15.07
2023-04-15T12:32:15.982Z,19.40
2023-04-15T12:35:22.268Z,20.97
2023-04-15T12:38:26.237Z,13.40
2023-04-15T12:41:30.276Z,18.02
2023-04-15T12:44:34.903Z,20.80
2023-04-15T12:47:38.753Z,27.55
2023-04-15T12:50:42.679Z,18.20
2023-04-15T12:53:46.275Z,12.57
2023-04-15T12:56:51.573Z,12.93
2023-04-15T12:59:55.292Z,13.35
2023-04-15T13:02:59.112Z,17.17
2023-04-15T13:06:05.272Z,20.50
2023-04-15T13:09:08.677Z,20.70
2023-04-15T13:12:14.362Z,21.65
2023-04-15T13:15:21.515Z,17.85
2023-04-15T13:18:24.720Z,20.58
2023-04-15T13:21:29.017Z,25.30
2023-04-15T13:24:32.648Z,17.07
2023-04-15T13:27:36.295Z,19.25
2023-04-15T13:30:40.276Z,13.83
2023-04-15T13:33:44.457Z,23.53
2023-04-15T13:36:48.106Z,12.30
2023-04-15T13:39:51.510Z,29.60
2023-04-15T13:42:54.408Z,10.52
2023-04-15T13:45:58.412Z,6.40
2023-04-15T13:49:01.542Z,8.67
2023-04-15T13:52:05.160Z,11.75
2023-04-15T13:55:20.611Z,12.85
2023-04-15T13:58:25.350Z,8.73
2023-04-15T14:01:30.091Z,11.77
2023-04-15T14:04:34.028Z,15.80
2023-04-15T14:07:37.896Z,12.68
2023-04-15T14:10:42.395Z,24.25
2023-04-15T14:13:46.015Z,12.05
2023-04-15T14:16:49.099Z,14.33
2023-04-15T14:19:52.168Z,11.43
2023-04-15T14:22:55.927Z,10.30
2023-04-15T14:25:59.555Z,13.10
2023-04-15T14:29:02.900Z,11.82
2023-04-15T14:32:11.860Z,20.53
2023-04-15T14:35:16.401Z,13.00
2023-04-15T14:38:20.351Z,14.30
2023-04-15T14:41:24.182Z,10.70
2023-04-15T14:44:27.848Z,10.43
2023-04-15T14:47:32.431Z,10.03
2023-04-15T14:50:36.449Z,12.70
2023-04-15T14:53:40.763Z,8.45
2023-04-15T14:56:44.434Z,6.20
2023-04-15T14:59:47.402Z,9.45
2023-04-15T15:02:50.462Z,6.13
2023-04-15T15:05:53.625Z,7.30
2023-04-15T15:08:56.595Z,8.45
2023-04-15T15:11:59.487Z,4.32
2023-04-15T15:15:09.177Z,9.93
2023-04-15T15:18:20.915Z,11.83
2023-04-15T15:21:24.608Z,8.00
2023-04-15T15:24:27.890Z,15.10
2023-04-15T15:27:31.954Z,27.30
2023-04-15T15:30:35.191Z,14.43
2023-04-15T15:33:38.160Z,10.57
2023-04-15T15:36:42.047Z,9.30
2023-04-15T15:39:45.341Z,14.48
2023-04-15T15:42:51.376Z,9.18
2023-04-15T15:45:56.497Z,10.70
2023-04-15T15:48:59.584Z,7.73
2023-04-15T15:52:03.654Z,10.73
2023-04-15T15:55:07.426Z,12.30
2023-04-15T15:58:10.736Z,12.63
2023-04-15T16:01:13.865Z,13.15
2023-04-15T16:04:18.286Z,8.83
2023-04-15T16:07:21.909Z,11.20
2023-04-15T16:10:25.038Z,11.32
2023-04-15T16:13:46.992Z,11.35
2023-04-15T16:16:49.944Z,7.20
2023-04-15T16:19:55.825Z,6.97
2023-04-15T16:23:11.698Z,13.93
2023-04-15T16:26:14.838Z,9.30
2023-04-15T16:29:18.890Z,13.18
2023-04-15T16:32:23.269Z,13.00
2023-04-15T16:35:29.492Z,7.43
2023-04-15T16:38:32.974Z,5.27
2023-04-15T16:41:35.879Z,5.53
2023-04-15T16:44:39.197Z,4.25
2023-04-15T16:47:42.338Z,8.93
2023-04-15T16:50:47.039Z,5.60
2023-04-15T16:53:50.955Z,2.43
2023-04-15T16:56:54.618Z,5.85
2023-04-15T16:59:57.643Z,5.43
2023-04-15T17:03:04.178Z,6.93
2023-04-15T17:06:07.342Z,5.83
2023-04-15T17:09:10.698Z,4.13
2023-04-15T17:12:14.901Z,3.90
2023-04-15T17:15:19.557Z,3.28
2023-04-15T17:18:23.270Z,4.18
2023-04-15T17:21:27.165Z,3.40
2023-04-15T17:24:30.149Z,4.43
2023-04-15T17:27:34.229Z,2.88
2023-04-15T17:30:37.922Z,6.72
2023-04-15T17:34:01.434Z,9.77
2023-04-15T17:37:06.437Z,4.90
2023-04-15T17:40:10.398Z,6.70
2023-04-15T17:43:14.016Z,4.40
2023-04-15T17:46:17.228Z,4.05
2023-04-15T17:49:20.299Z,3.65
2023-04-15T17:52:23.519Z,4.53
2023-04-15T17:55:26.534Z,5.97
2023-04-15T17:58:30.773Z,3.58
2023-04-15T18:01:34.397Z,2.97
2023-04-15T18:04:38.150Z,2.00
2023-04-15T18:07:41.661Z,5.77
2023-04-15T18:10:44.531Z,4.27
2023-04-15T18:13:47.475Z,3.05
2023-04-15T18:16:50.406Z,5.47
2023-04-15T18:19:53.628Z,5.85
2023-04-15T18:22:56.889Z,4.90
2023-04-15T18:26:00.178Z,8.90
2023-04-15T18:29:04.294Z,6.85
2023-04-15T18:32:07.221Z,6.78
2023-04-15T18:35:10.837Z,4.53
2023-04-15T18:38:13.843Z,5.60
2023-04-15T18:41:17.861Z,4.57
2023-04-15T18:44:21.206Z,6.18
2023-04-15T18:47:26.917Z,2.13
2023-04-15T18:50:30.044Z,5.47
2023-04-15T18:53:33.328Z,3.27
2023-04-15T18:56:36.481Z,5.17
2023-04-15T18:59:40.266Z,3.20
2023-04-15T19:02:44.760Z,5.60
2023-04-15T19:05:48.017Z,3.88
2023-04-15T19:08:52.548Z,2.37
2023-04-15T19:11:57.304Z,4.40
2023-04-15T19:15:01.366Z,2.58
2023-04-15T19:18:10.956Z,3.35
2023-04-15T19:21:14.861Z,2.45
2023-04-15T19:24:18.771Z,2.20
2023-04-15T19:27:21.817Z,2.00
2023-04-15T19:30:25.200Z,1.83
2023-04-15T19:33:31.633Z,2.38
2023-04-15T19:36:35.382Z,4.47
2023-04-15T19:39:38.877Z,3.70
2023-04-15T19:42:41.915Z,4.87
2023-04-15T19:45:47.298Z,4.05
2023-04-15T19:48:50.349Z,3.35
2023-04-15T19:51:53.373Z,3.30
2023-04-15T19:54:56.642Z,2.83
2023-04-15T19:58:00.418Z,4.50
2023-04-15T20:01:03.727Z,4.75
2023-04-15T20:04:07.647Z,2.15
2023-04-15T20:07:11.810Z,2.33
2023-04-15T20:10:15.429Z,2.23
2023-04-15T20:13:18.399Z,5.27
2023-04-15T20:16:22.415Z,2.47
2023-04-15T20:19:26.576Z,1.50
2023-04-15T20:22:29.541Z,4.07
2023-04-15T20:25:32.471Z,4.30
2023-04-15T20:28:35.430Z,1.93
2023-04-15T20:31:38.798Z,3.33
2023-04-15T20:34:42.213Z,4.07
2023-04-15T20:37:45.600Z,3.00
2023-04-15T20:40:49.372Z,1.93
2023-04-15T20:43:53.287Z,2.27
2023-04-15T20:46:57.097Z,3.25
2023-04-15T20:50:00.366Z,3.17
2023-04-15T20:53:04.893Z,4.90
2023-04-15T20:56:08.619Z,2.50
2023-04-15T20:59:12.294Z,5.37
2023-04-15T21:02:15.525Z,1.98
2023-04-15T21:05:19.318Z,2.20
2023-04-15T21:08:29.760Z,2.75
2023-04-15T21:11:53.343Z,2.10
2023-04-15T21:14:57.878Z,1.63
2023-04-15T21:18:01.002Z,3.20
2023-04-15T21:21:04.516Z,2.45
2023-04-15T21:24:08.541Z,3.13
2023-04-15T21:27:12.690Z,3.67
2023-04-15T21:30:16.331Z,5.13
2023-04-15T21:33:21.384Z,4.07
2023-04-15T21:36:25.125Z,4.47
2023-04-15T21:39:29.452Z,3.67
2023-04-15T21:42:33.045Z,4.37
2023-04-15T21:45:39.592Z,4.53
2023-04-15T21:48:43.400Z,4.93
2023-04-15T21:51:48.287Z,3.83
2023-04-15T21:54:51.950Z,3.80
2023-04-15T21:57:55.589Z,3.83
2023-04-15T22:01:00.810Z,7.63
2023-04-15T22:04:04.728Z,7.88
2023-04-15T22:07:08.523Z,3.35
2023-04-15T22:10:12.795Z,4.53
2023-04-15T22:13:17.122Z,4.50
2023-04-15T22:16:21.341Z,2.70
2023-04-15T22:19:26.479Z,11.00
2023-04-15T22:22:43.223Z,10.75
2023-04-15T22:25:48.221Z,7.65
2023-04-15T22:28:52.548Z,5.87
2023-04-15T22:31:56.210Z,3.50
2023-04-15T22:35:00.160Z,3.67
2023-04-15T22:38:05.376Z,6.82
2023-04-15T22:41:08.811Z,2.67
2023-04-15T22:44:12.518Z,4.77
2023-04-15T22:47:16.727Z,8.67
2023-04-15T22:50:20.145Z,10.52
2023-04-15T22:53:24.147Z,11.80
2023-04-15T22:56:27.694Z,9.35
2023-04-15T22:59:31.876Z,6.03
2023-04-15T23:02:35.983Z,4.83
2023-04-15T23:05:41.025Z,6.47
2023-04-15T23:08:48.441Z,6.95
2023-04-15T23:11:52.444Z,7.57
2023-04-15T23:14:56.390Z,4.13
2023-04-15T23:18:01.401Z,8.17
2023-04-15T23:21:05.118Z,9.30
2023-04-15T23:24:09.092Z,5.03
2023-04-15T23:27:12.572Z,5.43
2023-04-15T23:30:16.523Z,4.93
2023-04-15T23:33:20.133Z,7.23
2023-04-15T23:36:24.076Z,6.53
2023-04-15T23:39:27.695Z,3.40
2023-04-15T23:42:31.705Z,6.03
2023-04-15T23:45:34.877Z,16.27
2023-04-15T23:48:39.346Z,7.53
2023-04-15T23:51:43.007Z,5.90
2023-04-15T23:54:47.014Z,8.80
2023-04-15T23:57:50.268Z,8.82
